createdAt,value
2023-04-29T00:00:28.995Z,34.88
2023-04-29T00:01:00.420Z,37.30
2023-04-29T00:01:31.826Z,36.60
2023-04-29T00:02:03.200Z,36.22
2023-04-29T00:02:34.938Z,40.38
2023-04-29T00:03:06.620Z,43.55
2023-04-29T00:03:38.359Z,38.35
2023-04-29T00:04:10.136Z,32.43
2023-04-29T00:04:42.006Z,41.38
2023-04-29T00:05:13.870Z,33.42
2023-04-29T00:05:46.285Z,35.83
2023-04-29T00:06:18.216Z,38.45
2023-04-29T00:06:50.122Z,41.65
2023-04-29T00:07:22.298Z,37.10
2023-04-29T00:07:53.761Z,36.53
2023-04-29T00:08:25.892Z,31.77
2023-04-29T00:08:57.234Z,40.97
2023-04-29T00:09:28.561Z,37.27
2023-04-29T00:10:00.433Z,37.58
2023-04-29T00:10:31.798Z,34.58
2023-04-29T00:11:03.487Z,34.22
2023-04-29T00:11:34.849Z,37.60
2023-04-29T00:12:06.238Z,37.63
2023-04-29T00:12:37.701Z,39.42
2023-04-29T00:13:09.084Z,38.83
2023-04-29T00:13:40.801Z,38.55
2023-04-29T00:14:12.317Z,41.38
2023-04-29T00:14:43.795Z,37.53
2023-04-29T00:15:15.337Z,36.22
2023-04-29T00:15:46.857Z,33.65
2023-04-29T00:16:18.820Z,38.28
2023-04-29T00:16:50.482Z,39.38
2023-04-29T00:17:21.936Z,37.95
2023-04-29T00:17:53.459Z,37.95
2023-04-29T00:18:24.938Z,37.55
2023-04-29T00:18:56.560Z,32.88
2023-04-29T00:19:28.607Z,40.25
2023-04-29T00:19:59.962Z,39.63
2023-04-29T00:20:31.490Z,36.35
2023-04-29T00:21:03.209Z,37.55
2023-04-29T00:21:34.679Z,36.75
2023-04-29T00:22:06.135Z,41.38
2023-04-29T00:22:38.174Z,36.70
2023-04-29T00:23:09.613Z,36.00
2023-04-29T00:23:41.013Z,37.17
2023-04-29T00:24:12.421Z,40.03
2023-04-29T00:24:43.770Z,35.35
2023-04-29T00:25:16.055Z,41.37
2023-04-29T00:25:47.436Z,36.85
2023-04-29T00:26:18.893Z,39.15
2023-04-29T00:26:50.353Z,45.10
2023-04-29T00:27:21.694Z,36.55
2023-04-29T00:27:53.035Z,37.20
2023-04-29T00:28:24.453Z,37.10
2023-04-29T00:28:55.823Z,40.90
2023-04-29T00:29:27.748Z,40.67
2023-04-29T00:29:59.086Z,38.33
2023-04-29T00:30:32.479Z,41.67
2023-04-29T00:31:03.950Z,35.33
2023-04-29T00:31:35.507Z,37.47
2023-04-29T00:32:06.972Z,35.63
2023-04-29T00:32:38.559Z,38.00
2023-04-29T00:33:09.984Z,31.85
2023-04-29T00:33:41.372Z,35.90
2023-04-29T00:34:12.765Z,37.53
2023-04-29T00:34:44.324Z,40.10
2023-04-29T00:35:16.414Z,39.13
2023-04-29T00:35:48.167Z,36.27
2023-04-29T00:36:19.536Z,43.58
2023-04-29T00:36:50.894Z,39.20
2023-04-29T00:37:22.274Z,37.45
2023-04-29T00:37:53.946Z,36.95
2023-04-29T00:38:25.543Z,38.25
2023-04-29T00:38:57.643Z,38.08
2023-04-29T00:39:29.072Z,40.75
2023-04-29T00:40:00.788Z,36.45
2023-04-29T00:40:32.121Z,38.10
2023-04-29T00:41:03.830Z,36.20
2023-04-29T00:41:35.811Z,38.00
2023-04-29T00:42:07.924Z,36.58
2023-04-29T00:42:39.314Z,36.58
2023-04-29T00:43:10.818Z,36.25
2023-04-29T00:43:42.276Z,40.03
2023-04-29T00:44:13.772Z,36.55
2023-04-29T00:44:45.262Z,33.50
2023-04-29T00:45:16.985Z,40.15
2023-04-29T00:45:48.870Z,36.47
2023-04-29T00:46:20.505Z,38.13
2023-04-29T00:46:51.950Z,37.47
2023-04-29T00:47:23.409Z,34.28
2023-04-29T00:47:54.935Z,39.35
2023-04-29T00:48:26.607Z,35.00
2023-04-29T00:48:58.120Z,34.60
2023-04-29T00:49:29.515Z,36.00
2023-04-29T00:50:01.107Z,35.08
2023-04-29T00:50:32.936Z,37.70
2023-04-29T00:51:05.807Z,32.92
2023-04-29T00:51:37.589Z,34.73
2023-04-29T00:52:11.615Z,32.42
2023-04-29T00:52:43.257Z,36.20
2023-04-29T00:53:14.827Z,38.60
2023-04-29T00:53:47.992Z,38.03
2023-04-29T00:54:21.161Z,34.83
2023-04-29T00:54:52.671Z,35.70
2023-04-29T00:55:26.521Z,40.45
2023-04-29T00:55:58.188Z,33.83
2023-04-29T00:56:32.210Z,36.20
2023-04-29T00:57:04.255Z,33.23
2023-04-29T00:57:35.762Z,33.95
2023-04-29T00:58:07.811Z,45.17
2023-04-29T00:58:39.570Z,35.42
2023-04-29T00:59:12.580Z,38.85
2023-04-29T00:59:45.679Z,34.00
2023-04-29T01:00:17.492Z,37.97
2023-04-29T01:00:49.557Z,30.23
2023-04-29T01:01:22.002Z,34.60
2023-04-29T01:01:54.047Z,35.97
2023-04-29T01:02:26.458Z,33.63
2023-04-29T01:02:59.760Z,33.45
2023-04-29T01:03:32.539Z,31.48
2023-04-29T01:04:05.963Z,35.28
2023-04-29T01:04:37.642Z,34.38
2023-04-29T01:05:09.362Z,31.65
2023-04-29T01:05:41.154Z,29.17
2023-04-29T01:06:38.238Z,30.08
2023-04-29T01:07:17.690Z,31.58
2023-04-29T01:07:59.028Z,26.00
2023-04-29T01:08:44.349Z,35.70
2023-04-29T01:09:33.928Z,25.25
2023-04-29T01:10:31.385Z,27.30
2023-04-29T01:11:09.764Z,27.90
2023-04-29T01:12:11.446Z,27.33
2023-04-29T01:12:49.195Z,30.10
2023-04-29T01:13:35.084Z,26.90
2023-04-29T01:14:07.718Z,26.63
2023-04-29T01:14:39.574Z,29.10
2023-04-29T01:15:16.467Z,31.52
2023-04-29T01:16:04.866Z,26.10
2023-04-29T01:16:51.363Z,25.85
2023-04-29T01:17:26.830Z,27.05
2023-04-29T01:18:10.522Z,27.73
2023-04-29T01:18:46.269Z,26.88
2023-04-29T01:19:26.418Z,30.15
2023-04-29T01:19:58.974Z,26.95
2023-04-29T01:20:31.016Z,26.58
2023-04-29T01:21:02.475Z,28.13
2023-04-29T01:21:46.163Z,30.08
2023-04-29T01:22:21.835Z,24.37
2023-04-29T01:22:53.343Z,33.85
2023-04-29T01:23:28.951Z,29.55
2023-04-29T01:24:00.534Z,26.55
2023-04-29T01:24:31.862Z,29.92
2023-04-29T01:25:03.304Z,30.10
2023-04-29T01:25:34.822Z,27.77
2023-04-29T01:26:06.755Z,31.05
2023-04-29T01:26:38.195Z,30.52
2023-04-29T01:27:23.914Z,30.17
2023-04-29T01:28:27.915Z,31.33
2023-04-29T01:29:23.091Z,34.30
2023-04-29T01:30:07.551Z,26.02
2023-04-29T01:30:50.486Z,26.95
2023-04-29T01:31:31.214Z,29.85
2023-04-29T01:32:09.060Z,28.20
2023-04-29T01:32:58.399Z,30.45
2023-04-29T01:33:42.127Z,28.95
2023-04-29T01:34:23.400Z,27.98
2023-04-29T01:35:11.436Z,29.00
2023-04-29T01:36:17.556Z,31.30
2023-04-29T01:37:07.664Z,26.45
2023-04-29T01:37:49.326Z,28.48
2023-04-29T01:38:30.534Z,27.13
2023-04-29T01:39:10.703Z,29.10
2023-04-29T01:40:09.551Z,29.60
2023-04-29T01:40:49.500Z,30.50
2023-04-29T01:41:34.526Z,30.83
2023-04-29T01:42:18.735Z,26.95
2023-04-29T01:43:03.278Z,29.73
2023-04-29T01:43:37.946Z,29.63
2023-04-29T01:44:16.617Z,31.33
2023-04-29T01:44:51.141Z,31.75
2023-04-29T01:45:23.192Z,30.05
2023-04-29T01:45:57.507Z,30.92
2023-04-29T01:46:29.028Z,29.48
2023-04-29T01:47:01.235Z,26.73
2023-04-29T01:47:33.111Z,30.23
2023-04-29T01:48:05.553Z,32.30
2023-04-29T01:48:37.430Z,27.77
2023-04-29T01:49:09.340Z,28.77
2023-04-29T01:49:40.925Z,31.80
2023-04-29T01:50:12.436Z,30.05
2023-04-29T01:50:44.498Z,33.80
2023-04-29T01:51:15.857Z,31.13
2023-04-29T01:51:47.208Z,27.17
2023-04-29T01:52:18.642Z,27.83
2023-04-29T01:52:50.140Z,34.60
2023-04-29T01:53:21.452Z,29.23
2023-04-29T01:53:53.024Z,30.75
2023-04-29T01:54:24.350Z,30.30
2023-04-29T01:54:56.413Z,30.73
2023-04-29T01:55:27.854Z,30.63
2023-04-29T01:55:59.259Z,30.13
2023-04-29T01:56:30.746Z,30.40
2023-04-29T01:57:03.251Z,28.08
2023-04-29T01:57:34.652Z,34.65
2023-04-29T01:58:06.083Z,33.55
2023-04-29T01:58:37.484Z,27.92
2023-04-29T01:59:08.947Z,32.05
2023-04-29T01:59:40.734Z,29.53
2023-04-29T02:00:12.380Z,30.60
2023-04-29T02:00:44.408Z,31.65
2023-04-29T02:01:16.171Z,34.20
2023-04-29T02:01:47.666Z,33.70
2023-04-29T02:02:21.640Z,29.25
2023-04-29T02:02:53.360Z,27.80
2023-04-29T02:03:24.927Z,29.33
2023-04-29T02:03:56.481Z,28.02
2023-04-29T02:04:28.844Z,27.92
2023-04-29T02:05:00.367Z,30.00
2023-04-29T02:05:34.121Z,30.77
2023-04-29T02:06:06.989Z,32.13
2023-04-29T02:06:38.575Z,29.27
2023-04-29T02:07:10.123Z,28.45
2023-04-29T02:07:42.400Z,31.50
2023-04-29T02:08:13.855Z,29.73
2023-04-29T02:08:45.177Z,31.98
2023-04-29T02:09:16.751Z,33.28
2023-04-29T02:09:48.120Z,34.53
2023-04-29T02:10:19.447Z,31.53
2023-04-29T02:10:58.232Z,37.60
2023-04-29T02:11:29.660Z,26.73
2023-04-29T02:12:01.087Z,33.33
2023-04-29T02:12:32.558Z,29.30
2023-04-29T02:13:03.966Z,27.02
2023-04-29T02:13:35.313Z,31.88
2023-04-29T02:14:06.848Z,27.10
2023-04-29T02:14:38.265Z,27.98
2023-04-29T02:15:09.820Z,29.10
2023-04-29T02:15:41.152Z,28.93
2023-04-29T02:16:14.319Z,29.00
2023-04-29T02:16:45.771Z,26.95
2023-04-29T02:17:17.196Z,29.45
2023-04-29T02:17:48.646Z,27.60
2023-04-29T02:18:20.068Z,27.02
2023-04-29T02:18:51.425Z,25.92
2023-04-29T02:19:22.832Z,29.88
2023-04-29T02:19:55.135Z,27.08
2023-04-29T02:20:26.985Z,27.92
2023-04-29T02:21:04.599Z,28.60
2023-04-29T02:21:36.199Z,26.40
2023-04-29T02:22:07.815Z,27.55
2023-04-29T02:22:39.203Z,25.23
2023-04-29T02:23:10.660Z,23.15
2023-04-29T02:23:42.044Z,27.38
2023-04-29T02:24:13.563Z,25.92
2023-04-29T02:24:44.953Z,29.17
2023-04-29T02:25:16.484Z,26.33
2023-04-29T02:25:48.041Z,26.48
2023-04-29T02:26:20.047Z,26.97
2023-04-29T02:26:51.399Z,27.77
2023-04-29T02:27:22.906Z,28.70
2023-04-29T02:27:54.284Z,28.92
2023-04-29T02:28:25.990Z,25.38
2023-04-29T02:28:57.861Z,26.45
2023-04-29T02:29:30.978Z,31.65
2023-04-29T02:30:02.579Z,27.05
2023-04-29T02:30:34.037Z,27.25
2023-04-29T02:31:05.541Z,25.45
2023-04-29T02:31:36.880Z,22.63
2023-04-29T02:32:08.583Z,26.38
2023-04-29T02:32:40.125Z,25.13
2023-04-29T02:33:11.588Z,24.83
2023-04-29T02:33:42.988Z,24.83
2023-04-29T02:34:14.475Z,29.77
2023-04-29T02:34:46.234Z,28.15
2023-04-29T02:35:17.745Z,26.38
2023-04-29T02:35:49.138Z,20.30
2023-04-29T02:36:20.821Z,28.15
2023-04-29T02:36:52.297Z,24.53
2023-04-29T02:37:23.816Z,23.70
2023-04-29T02:37:55.278Z,21.38
2023-04-29T02:38:26.868Z,25.63
2023-04-29T02:38:58.487Z,25.55
2023-04-29T02:39:29.862Z,23.95
2023-04-29T02:40:02.132Z,24.83
2023-04-29T02:40:33.625Z,24.42
2023-04-29T02:41:05.074Z,24.60
2023-04-29T02:41:36.401Z,21.92
2023-04-29T02:42:07.855Z,25.40
2023-04-29T02:42:39.249Z,24.20
2023-04-29T02:43:11.065Z,24.50
2023-04-29T02:43:42.651Z,26.25
2023-04-29T02:44:13.999Z,20.50
2023-04-29T02:44:45.338Z,21.55
2023-04-29T02:45:17.387Z,26.48
2023-04-29T02:45:48.926Z,22.48
2023-04-29T02:46:20.586Z,21.30
2023-04-29T02:46:52.025Z,20.88
2023-04-29T02:47:23.553Z,21.97
2023-04-29T02:47:54.874Z,23.95
2023-04-29T02:48:26.293Z,19.77
2023-04-29T02:48:57.676Z,25.25
2023-04-29T02:49:29.200Z,26.80
2023-04-29T02:50:00.546Z,23.52
2023-04-29T02:50:32.370Z,19.90
2023-04-29T02:51:04.096Z,24.42
2023-04-29T02:51:35.431Z,21.35
2023-04-29T02:52:07.340Z,18.50
2023-04-29T02:52:39.456Z,21.37
2023-04-29T02:53:11.115Z,21.45
2023-04-29T02:53:42.520Z,24.15
2023-04-29T02:54:13.987Z,23.02
2023-04-29T02:54:45.505Z,22.65
2023-04-29T02:55:17.147Z,18.40
2023-04-29T02:55:48.605Z,25.80
2023-04-29T02:56:20.112Z,20.73
2023-04-29T02:56:51.449Z,17.67
2023-04-29T02:57:22.842Z,20.80
2023-04-29T02:57:54.286Z,21.10
2023-04-29T02:58:25.705Z,23.77
2023-04-29T02:58:57.201Z,20.48
2023-04-29T02:59:28.584Z,23.00
2023-04-29T02:59:59.944Z,23.13
2023-04-29T03:00:31.333Z,22.13
2023-04-29T03:01:02.778Z,21.80
2023-04-29T03:01:34.183Z,25.85
2023-04-29T03:02:05.722Z,21.50
2023-04-29T03:02:38.233Z,21.08
2023-04-29T03:03:10.478Z,21.53
2023-04-29T03:03:42.388Z,19.65
2023-04-29T03:04:13.974Z,21.33
2023-04-29T03:04:45.570Z,20.60
2023-04-29T03:05:16.981Z,24.52
2023-04-29T03:05:48.293Z,26.67
2023-04-29T03:06:19.941Z,18.95
2023-04-29T03:06:51.293Z,21.75
2023-04-29T03:07:22.884Z,25.00
2023-04-29T03:07:54.307Z,22.67
2023-04-29T03:08:25.829Z,28.63
2023-04-29T03:08:57.823Z,24.30
2023-04-29T03:09:29.565Z,22.95
2023-04-29T03:10:01.633Z,23.63
2023-04-29T03:10:33.283Z,26.52
2023-04-29T03:11:04.769Z,17.80
2023-04-29T03:11:36.228Z,22.27
2023-04-29T03:12:07.639Z,21.92
2023-04-29T03:12:39.522Z,22.88
2023-04-29T03:13:10.980Z,23.40
2023-04-29T03:13:42.354Z,20.17
2023-04-29T03:14:13.922Z,23.92
2023-04-29T03:14:45.315Z,22.23
2023-04-29T03:15:17.035Z,22.25
2023-04-29T03:15:48.829Z,23.95
2023-04-29T03:16:21.365Z,20.30
2023-04-29T03:16:52.941Z,21.80
2023-04-29T03:17:24.380Z,23.40
2023-04-29T03:17:55.797Z,21.90
2023-04-29T03:18:27.273Z,21.98
2023-04-29T03:18:58.641Z,27.13
2023-04-29T03:19:30.176Z,19.15
2023-04-29T03:20:01.636Z,22.80
2023-04-29T03:20:33.061Z,21.88
2023-04-29T03:21:04.775Z,24.05
2023-04-29T03:21:36.190Z,25.88
2023-04-29T03:22:16.551Z,23.15
2023-04-29T03:22:48.037Z,23.65
2023-04-29T03:23:19.399Z,20.70
2023-04-29T03:23:50.922Z,22.58
2023-04-29T03:24:22.293Z,22.33
2023-04-29T03:24:53.638Z,23.10
2023-04-29T03:25:25.056Z,20.42
2023-04-29T03:25:56.713Z,23.35
2023-04-29T03:26:28.122Z,22.10
2023-04-29T03:27:00.201Z,21.83
2023-04-29T03:27:31.739Z,23.38
2023-04-29T03:28:03.222Z,27.27
2023-04-29T03:28:34.584Z,25.90
2023-04-29T03:29:06.137Z,22.58
2023-04-29T03:29:37.823Z,26.57
2023-04-29T03:30:09.474Z,22.40
2023-04-29T03:30:41.102Z,22.70
2023-04-29T03:31:12.517Z,21.80
2023-04-29T03:31:43.964Z,21.63
2023-04-29T03:32:15.494Z,21.92
2023-04-29T03:32:47.026Z,21.63
2023-04-29T03:33:18.584Z,25.10
2023-04-29T03:33:51.118Z,22.83
2023-04-29T03:34:23.123Z,27.20
2023-04-29T03:34:55.166Z,24.97
2023-04-29T03:35:26.510Z,22.98
2023-04-29T03:35:57.849Z,32.50
2023-04-29T03:36:29.692Z,23.08
2023-04-29T03:37:01.244Z,23.60
2023-04-29T03:37:32.616Z,22.48
2023-04-29T03:38:04.195Z,26.05
2023-04-29T03:38:35.717Z,26.02
2023-04-29T03:39:07.218Z,21.92
2023-04-29T03:39:38.557Z,22.58
2023-04-29T03:40:11.115Z,23.77
2023-04-29T03:40:42.678Z,22.58
2023-04-29T03:41:14.155Z,24.67
2023-04-29T03:41:47.142Z,20.02
2023-04-29T03:42:18.573Z,22.35
2023-04-29T03:42:49.970Z,20.90
2023-04-29T03:43:21.363Z,20.85
2023-04-29T03:43:52.898Z,25.17
2023-04-29T03:44:24.534Z,20.48
2023-04-29T03:44:55.891Z,21.52
2023-04-29T03:45:27.258Z,25.03
2023-04-29T03:45:59.130Z,23.00
2023-04-29T03:46:30.687Z,21.60
2023-04-29T03:47:02.065Z,25.42
2023-04-29T03:47:33.575Z,22.83
2023-04-29T03:48:05.769Z,23.73
2023-04-29T03:48:37.718Z,20.02
2023-04-29T03:49:09.413Z,22.92
2023-04-29T03:49:41.133Z,23.38
2023-04-29T03:50:12.563Z,18.98
2023-04-29T03:50:44.020Z,21.50
2023-04-29T03:51:15.678Z,21.45
2023-04-29T03:51:47.337Z,21.77
2023-04-29T03:52:19.031Z,23.83
2023-04-29T03:52:50.538Z,26.33
2023-04-29T03:53:22.178Z,26.15
2023-04-29T03:53:56.244Z,24.02
2023-04-29T03:54:27.912Z,22.45
2023-04-29T03:54:59.320Z,22.88
2023-04-29T03:55:31.033Z,21.65
2023-04-29T03:56:02.497Z,22.73
2023-04-29T03:56:33.874Z,24.35
2023-04-29T03:57:05.268Z,22.88
2023-04-29T03:57:36.657Z,22.92
2023-04-29T03:58:08.379Z,22.15
2023-04-29T03:58:39.803Z,21.45
2023-04-29T03:59:11.315Z,22.27
2023-04-29T03:59:42.651Z,19.00
2023-04-29T04:00:14.258Z,21.88
2023-04-29T04:00:45.998Z,23.00
2023-04-29T04:01:17.374Z,20.27
2023-04-29T04:01:48.832Z,20.83
2023-04-29T04:02:20.603Z,21.17
2023-04-29T04:02:53.065Z,23.02
2023-04-29T04:03:26.023Z,24.05
2023-04-29T04:03:57.954Z,27.27
2023-04-29T04:04:29.727Z,24.38
2023-04-29T04:05:01.496Z,21.65
2023-04-29T04:05:32.943Z,17.77
2023-04-29T04:06:04.358Z,21.63
2023-04-29T04:06:35.851Z,21.37
2023-04-29T04:07:07.278Z,18.40
2023-04-29T04:07:38.665Z,19.77
2023-04-29T04:08:11.087Z,19.63
2023-04-29T04:08:42.436Z,20.13
2023-04-29T04:09:13.792Z,21.33
2023-04-29T04:09:46.042Z,19.75
2023-04-29T04:10:17.453Z,20.48
2023-04-29T04:10:49.036Z,20.88
2023-04-29T04:11:20.751Z,21.40
2023-04-29T04:11:52.319Z,19.67
2023-04-29T04:12:23.858Z,18.52
2023-04-29T04:12:55.391Z,21.30
2023-04-29T04:13:27.144Z,21.17
2023-04-29T04:13:58.557Z,19.98
2023-04-29T04:14:30.230Z,18.65
2023-04-29T04:15:01.733Z,20.17
2023-04-29T04:15:33.102Z,22.90
2023-04-29T04:16:04.959Z,21.23
2023-04-29T04:16:36.608Z,22.25
2023-04-29T04:17:08.077Z,20.13
2023-04-29T04:17:39.633Z,19.92
2023-04-29T04:18:11.068Z,20.77
2023-04-29T04:18:42.553Z,21.63
2023-04-29T04:19:14.174Z,17.38
2023-04-29T04:19:45.603Z,24.40
2023-04-29T04:20:17.269Z,20.45
2023-04-29T04:20:48.841Z,19.95
2023-04-29T04:21:20.337Z,20.95
2023-04-29T04:21:51.736Z,20.30
2023-04-29T04:22:23.203Z,17.67
2023-04-29T04:22:54.863Z,24.65
2023-04-29T04:23:26.292Z,23.52
2023-04-29T04:23:57.741Z,24.77
2023-04-29T04:24:29.491Z,19.30
2023-04-29T04:25:00.916Z,17.23
2023-04-29T04:25:32.313Z,19.10
2023-04-29T04:26:03.656Z,17.42
2023-04-29T04:26:35.004Z,18.33
2023-04-29T04:27:07.308Z,20.58
2023-04-29T04:27:38.654Z,18.30
2023-04-29T04:28:09.983Z,19.30
2023-04-29T04:28:41.372Z,19.45
2023-04-29T04:29:12.862Z,17.17
2023-04-29T04:29:44.387Z,17.13
2023-04-29T04:30:16.140Z,18.33
2023-04-29T04:30:48.024Z,20.15
2023-04-29T04:31:19.419Z,17.77
2023-04-29T04:31:51.066Z,19.38
2023-04-29T04:32:23.542Z,18.10
2023-04-29T04:32:55.081Z,19.07
2023-04-29T04:33:27.520Z,16.95
2023-04-29T04:33:59.848Z,18.23
2023-04-29T04:34:31.320Z,20.98
2023-04-29T04:35:02.812Z,16.98
2023-04-29T04:35:34.215Z,17.42
2023-04-29T04:36:06.081Z,15.40
2023-04-29T04:36:37.723Z,20.35
2023-04-29T04:37:09.445Z,17.08
2023-04-29T04:37:40.904Z,19.38
2023-04-29T04:38:12.546Z,18.30
2023-04-29T04:38:44.017Z,16.20
2023-04-29T04:39:15.566Z,18.88
2023-04-29T04:39:47.266Z,16.45
2023-04-29T04:40:18.709Z,16.38
2023-04-29T04:40:50.085Z,15.00
2023-04-29T04:41:21.480Z,17.17
2023-04-29T04:41:52.887Z,16.95
2023-04-29T04:42:24.433Z,19.75
2023-04-29T04:42:56.304Z,16.50
2023-04-29T04:43:27.632Z,19.80
2023-04-29T04:43:59.180Z,20.80
2023-04-29T04:44:31.496Z,20.48
2023-04-29T04:45:03.651Z,22.33
2023-04-29T04:45:35.194Z,19.60
2023-04-29T04:46:14.290Z,17.85
2023-04-29T04:46:45.739Z,17.00
2023-04-29T04:47:17.371Z,16.45
2023-04-29T04:47:48.776Z,16.33
2023-04-29T04:48:20.249Z,18.33
2023-04-29T04:48:51.628Z,17.70
2023-04-29T04:49:26.198Z,18.88
2023-04-29T04:49:57.556Z,15.95
2023-04-29T04:50:30.399Z,16.27
2023-04-29T04:51:08.947Z,16.33
2023-04-29T04:51:40.594Z,18.58
2023-04-29T04:52:13.067Z,15.95
2023-04-29T04:52:44.388Z,19.05
2023-04-29T04:53:16.127Z,19.38
2023-04-29T04:53:47.607Z,18.15
2023-04-29T04:54:19.299Z,15.37
2023-04-29T04:54:50.774Z,19.08
2023-04-29T04:55:22.797Z,17.95
2023-04-29T04:55:54.150Z,20.25
2023-04-29T04:56:25.785Z,21.33
2023-04-29T04:56:57.162Z,19.27
2023-04-29T04:57:28.610Z,17.40
2023-04-29T04:58:00.184Z,19.08
2023-04-29T04:58:32.554Z,18.83
2023-04-29T04:59:04.338Z,18.63
2023-04-29T04:59:35.677Z,21.27
2023-04-29T05:00:07.588Z,19.75
2023-04-29T05:00:44.249Z,16.92
2023-04-29T05:01:15.891Z,24.17
2023-04-29T05:01:47.628Z,21.05
2023-04-29T05:02:19.193Z,20.13
2023-04-29T05:02:51.260Z,21.27
2023-04-29T05:03:22.863Z,18.50
2023-04-29T05:03:54.462Z,18.52
2023-04-29T05:04:26.356Z,22.30
2023-04-29T05:04:57.959Z,20.43
2023-04-29T05:05:29.356Z,19.63
2023-04-29T05:06:01.363Z,18.83
2023-04-29T05:06:32.712Z,18.70
2023-04-29T05:07:04.098Z,18.48
2023-04-29T05:07:38.459Z,22.25
2023-04-29T05:08:10.072Z,18.08
2023-04-29T05:08:41.412Z,20.17
2023-04-29T05:09:12.795Z,15.40
2023-04-29T05:09:44.155Z,20.10
2023-04-29T05:10:15.502Z,17.23
2023-04-29T05:10:46.845Z,25.35
2023-04-29T05:11:19.458Z,18.75
2023-04-29T05:11:51.127Z,18.23
2023-04-29T05:12:23.582Z,20.02
2023-04-29T05:12:55.042Z,18.75
2023-04-29T05:13:26.734Z,24.85
2023-04-29T05:13:58.077Z,20.10
2023-04-29T05:14:29.661Z,18.48
2023-04-29T05:15:01.610Z,21.40
2023-04-29T05:15:32.988Z,18.97
2023-04-29T05:16:06.553Z,20.38
2023-04-29T05:16:38.452Z,18.52
2023-04-29T05:17:11.210Z,17.38
2023-04-29T05:17:42.595Z,19.00
2023-04-29T05:18:14.026Z,20.33
2023-04-29T05:18:46.466Z,18.17
2023-04-29T05:19:17.894Z,18.90
2023-04-29T05:19:49.390Z,14.40
2023-04-29T05:20:21.354Z,21.58
2023-04-29T05:20:52.672Z,23.37
2023-04-29T05:21:24.050Z,16.63
2023-04-29T05:21:55.533Z,20.40
2023-04-29T05:22:26.968Z,18.48
2023-04-29T05:22:58.378Z,20.15
2023-04-29T05:23:29.741Z,22.38
2023-04-29T05:24:01.218Z,22.52
2023-04-29T05:24:32.879Z,17.45
2023-04-29T05:25:04.484Z,16.00
2023-04-29T05:25:35.973Z,16.17
2023-04-29T05:26:07.340Z,18.57
2023-04-29T05:26:38.706Z,18.95
2023-04-29T05:27:10.116Z,21.38
2023-04-29T05:27:41.594Z,18.55
2023-04-29T05:28:13.126Z,18.05
2023-04-29T05:28:44.454Z,16.77
2023-04-29T05:29:16.099Z,19.50
2023-04-29T05:29:47.554Z,23.27
2023-04-29T05:30:19.470Z,18.27
2023-04-29T05:30:52.016Z,20.83
2023-04-29T05:31:23.528Z,23.60
2023-04-29T05:31:55.218Z,18.73
2023-04-29T05:32:26.703Z,19.38
2023-04-29T05:32:58.637Z,18.45
2023-04-29T05:33:30.106Z,20.50
2023-04-29T05:34:01.518Z,18.15
2023-04-29T05:34:33.707Z,18.17
2023-04-29T05:35:07.303Z,18.52
2023-04-29T05:35:38.902Z,18.63
2023-04-29T05:36:10.335Z,19.10
2023-04-29T05:36:41.702Z,18.30
2023-04-29T05:37:13.418Z,25.88
2023-04-29T05:37:44.740Z,21.08
2023-04-29T05:38:16.201Z,17.65
2023-04-29T05:38:47.516Z,23.73
2023-04-29T05:39:18.896Z,17.90
2023-04-29T05:39:50.404Z,20.65
2023-04-29T05:40:23.223Z,19.15
2023-04-29T05:40:56.227Z,22.23
2023-04-29T05:41:27.699Z,17.80
2023-04-29T05:41:59.103Z,18.80
2023-04-29T05:42:30.845Z,16.45
2023-04-29T05:43:02.314Z,21.27
2023-04-29T05:43:33.855Z,16.58
2023-04-29T05:44:05.258Z,17.30
2023-04-29T05:44:36.661Z,21.55
2023-04-29T05:45:08.797Z,21.73
2023-04-29T05:45:40.131Z,19.58
2023-04-29T05:46:11.528Z,20.10
2023-04-29T05:46:43.052Z,17.65
2023-04-29T05:47:14.491Z,22.13
2023-04-29T05:47:46.109Z,16.17
2023-04-29T05:48:17.845Z,18.23
2023-04-29T05:48:49.223Z,20.60
2023-04-29T05:49:20.976Z,22.88
2023-04-29T05:49:52.598Z,17.95
2023-04-29T05:50:24.377Z,18.45
2023-04-29T05:50:56.118Z,17.10
2023-04-29T05:51:28.238Z,19.13
2023-04-29T05:52:04.023Z,17.35
2023-04-29T05:52:35.432Z,18.33
2023-04-29T05:53:07.055Z,21.38
2023-04-29T05:53:38.769Z,19.60
2023-04-29T05:54:10.373Z,19.25
2023-04-29T05:54:41.902Z,19.13
2023-04-29T05:55:13.392Z,21.20
2023-04-29T05:55:46.457Z,19.90
2023-04-29T05:56:17.936Z,23.45
2023-04-29T05:56:49.400Z,23.63
2023-04-29T05:57:20.930Z,19.88
2023-04-29T05:57:52.274Z,26.23
2023-04-29T05:58:23.940Z,21.80
2023-04-29T05:58:55.383Z,19.25
2023-04-29T05:59:26.790Z,19.80
2023-04-29T05:59:59.620Z,22.75
2023-04-29T06:00:31.925Z,21.13
2023-04-29T06:01:03.459Z,24.02
2023-04-29T06:01:34.871Z,24.08
2023-04-29T06:02:06.564Z,19.42
2023-04-29T06:02:47.527Z,26.13
2023-04-29T06:03:22.797Z,20.53
2023-04-29T06:03:54.569Z,19.30
2023-04-29T06:04:27.139Z,18.92
2023-04-29T06:04:58.789Z,21.52
2023-04-29T06:05:30.789Z,19.67
2023-04-29T06:06:03.047Z,22.15
2023-04-29T06:06:34.682Z,23.30
2023-04-29T06:07:08.890Z,19.27
2023-04-29T06:07:40.858Z,24.88
2023-04-29T06:08:12.204Z,20.13
2023-04-29T06:08:43.611Z,23.13
2023-04-29T06:09:27.188Z,23.55
2023-04-29T06:09:59.317Z,20.42
2023-04-29T06:10:30.654Z,21.27
2023-04-29T06:11:03.491Z,20.80
2023-04-29T06:11:34.853Z,22.80
2023-04-29T06:12:06.461Z,22.00
2023-04-29T06:12:37.790Z,21.85
2023-04-29T06:13:09.730Z,21.40
2023-04-29T06:13:41.116Z,19.67
2023-04-29T06:14:12.623Z,18.27
2023-04-29T06:14:45.444Z,19.35
2023-04-29T06:15:17.237Z,18.52
2023-04-29T06:15:49.383Z,23.35
2023-04-29T06:16:21.339Z,21.58
2023-04-29T06:16:53.743Z,21.73
2023-04-29T06:17:25.330Z,21.17
2023-04-29T06:17:56.690Z,21.83
2023-04-29T06:18:28.448Z,19.27
2023-04-29T06:19:00.436Z,22.35
2023-04-29T06:19:33.627Z,20.80
2023-04-29T06:20:05.573Z,21.15
2023-04-29T06:20:37.593Z,19.80
2023-04-29T06:21:09.070Z,21.45
2023-04-29T06:21:40.668Z,20.98
2023-04-29T06:22:12.239Z,18.98
2023-04-29T06:22:43.615Z,21.85
2023-04-29T06:23:15.181Z,20.85
2023-04-29T06:23:46.774Z,23.77
2023-04-29T06:24:18.162Z,23.13
2023-04-29T06:24:49.860Z,19.63
2023-04-29T06:25:21.682Z,27.25
2023-04-29T06:25:53.301Z,20.83
2023-04-29T06:26:24.755Z,22.17
2023-04-29T06:26:56.433Z,19.60
2023-04-29T06:27:28.253Z,21.80
2023-04-29T06:27:59.798Z,20.20
2023-04-29T06:28:31.356Z,26.45
2023-04-29T06:29:02.774Z,25.90
2023-04-29T06:29:34.277Z,24.73
2023-04-29T06:30:06.620Z,21.60
2023-04-29T06:30:38.413Z,21.40
2023-04-29T06:31:09.889Z,24.40
2023-04-29T06:31:41.341Z,22.17
2023-04-29T06:32:13.989Z,21.88
2023-04-29T06:32:45.656Z,22.60
2023-04-29T06:33:17.085Z,19.52
2023-04-29T06:33:48.412Z,25.25
2023-04-29T06:34:19.915Z,22.60
2023-04-29T06:34:51.472Z,20.95
2023-04-29T06:35:23.239Z,24.30
2023-04-29T06:35:54.586Z,20.42
2023-04-29T06:36:27.137Z,20.80
2023-04-29T06:36:58.536Z,19.92
2023-04-29T06:37:29.969Z,20.45
2023-04-29T06:38:01.363Z,22.17
2023-04-29T06:38:32.722Z,25.67
2023-04-29T06:39:04.121Z,25.35
2023-04-29T06:39:35.728Z,22.77
2023-04-29T06:40:07.904Z,22.40
2023-04-29T06:40:39.229Z,21.10
2023-04-29T06:41:10.745Z,21.45
2023-04-29T06:41:42.864Z,19.05
2023-04-29T06:42:14.450Z,19.40
2023-04-29T06:42:46.534Z,24.73
2023-04-29T06:43:17.864Z,24.65
2023-04-29T06:43:49.172Z,23.23
2023-04-29T06:44:20.562Z,21.33
2023-04-29T06:44:51.900Z,20.80
2023-04-29T06:45:23.702Z,24.88
2023-04-29T06:45:55.780Z,21.73
2023-04-29T06:46:28.058Z,25.15
2023-04-29T06:46:59.773Z,19.27
2023-04-29T06:47:31.281Z,20.05
2023-04-29T06:48:02.813Z,21.15
2023-04-29T06:48:34.278Z,21.45
2023-04-29T06:49:06.911Z,22.10
2023-04-29T06:49:38.642Z,23.10
2023-04-29T06:50:10.377Z,20.60
2023-04-29T06:50:52.680Z,20.75
2023-04-29T06:51:24.975Z,20.47
2023-04-29T06:51:56.573Z,19.73
2023-04-29T06:52:27.966Z,19.98
2023-04-29T06:52:59.713Z,20.77
2023-04-29T06:53:31.130Z,23.35
2023-04-29T06:54:02.558Z,23.35
2023-04-29T06:54:33.938Z,21.52
2023-04-29T06:55:05.934Z,20.30
2023-04-29T06:55:37.411Z,21.48
2023-04-29T06:56:08.964Z,17.95
2023-04-29T06:56:40.475Z,16.37
2023-04-29T06:57:12.011Z,16.55
2023-04-29T06:57:43.414Z,18.90
2023-04-29T06:58:15.886Z,17.02
2023-04-29T06:58:47.594Z,21.30
2023-04-29T06:59:18.997Z,19.27